Time;durP1;ratioP1;P1;durP2;ratioP2;P2;SDS_P1;SDS_P2;PMS_P1;PMS_P2;Temp;Humidity;BMP_temperature;BMP_pressure;BME280_temperature;BME280_humidity;BME280_pressure;Samples;Min_cycle;Max_cycle;Signal;HPM_P1;HPM_P2
2021/05/12 00:00:12;;;;;;;7.75;3.90;;;;;;;18.56;51.87;99372.28;5074218;28;20028;-69
2021/05/12 00:02:38;;;;;;;6.70;3.70;;;;;;;18.51;52.10;99377.31;5074169;28;20109;-69
2021/05/12 00:05:05;;;;;;;7.75;4.00;;;;;;;18.50;52.32;99380.19;5072741;28;20036;-69
2021/05/12 00:07:31;;;;;;;7.32;3.85;;;;;;;18.44;52.90;99383.56;5072769;28;20041;-69
2021/05/12 00:09:57;;;;;;;5.53;3.55;;;;;;;18.29;52.40;99365.28;5074041;28;20443;-69
2021/05/12 00:12:22;;;;;;;7.38;4.35;;;;;;;18.40;52.11;99374.94;5073859;28;20032;-70
2021/05/12 00:14:48;;;;;;;8.20;3.67;;;;;;;18.40;52.46;99380.31;5074077;28;20490;-70
2021/05/12 00:17:18;;;;;;;6.40;3.80;;;;;;;18.28;52.02;99357.34;5073567;28;20396;-69
2021/05/12 00:19:44;;;;;;;6.68;3.60;;;;;;;18.26;52.33;99354.81;5072431;28;20054;-69
2021/05/12 00:24:39;;;;;;;8.68;3.80;;;;;;;18.22;53.92;99366.91;5073454;28;20032;-68
2021/05/12 00:27:05;;;;;;;6.38;3.60;;;;;;;17.99;54.76;99361.25;5073804;28;20063;-67
2021/05/12 00:29:30;;;;;;;6.20;3.75;;;;;;;18.02;54.31;99362.78;5055605;28;20462;-69
2021/05/12 00:31:56;;;;;;;7.20;4.07;;;;;;;17.91;54.23;99360.38;5073449;28;20055;-67
2021/05/12 00:34:21;;;;;;;8.00;3.80;;;;;;;17.59;54.68;99317.88;5071981;28;20041;-68
2021/05/12 00:36:47;;;;;;;8.15;4.32;;;;;;;17.74;54.90;99346.78;5072229;28;20036;-67
2021/05/12 00:39:12;;;;;;;6.75;3.95;;;;;;;17.68;55.56;99350.13;5072485;28;20043;-67
2021/05/12 00:41:39;;;;;;;6.60;3.78;;;;;;;17.80;55.50;99357.97;5071788;28;20067;-68
2021/05/12 00:44:06;;;;;;;9.95;4.10;;;;;;;17.64;55.55;99337.94;5073473;28;20040;-68
2021/05/12 00:46:31;;;;;;;11.00;4.00;;;;;;;17.74;54.71;99351.34;5073036;28;20029;-67
2021/05/12 00:48:57;;;;;;;8.15;3.67;;;;;;;17.76;54.14;99348.47;5073278;28;20055;-68
2021/05/12 00:51:22;;;;;;;10.65;4.00;;;;;;;17.67;54.95;99337.63;5055003;28;20430;-67
2021/05/12 00:53:48;;;;;;;6.72;3.75;;;;;;;17.69;55.97;99346.44;5072311;28;20040;-68
2021/05/12 00:56:14;;;;;;;8.27;4.07;;;;;;;17.50;56.44;99324.22;5073100;28;20063;-67
2021/05/12 00:58:39;;;;;;;10.38;4.10;;;;;;;17.37;57.74;99332.69;5071663;28;20033;-68
2021/05/12 01:01:05;;;;;;;8.88;4.43;;;;;;;17.30;58.16;99340.59;5073120;28;20032;-67
2021/05/12 01:03:30;;;;;;;9.50;4.18;;;;;;;17.09;58.68;99332.84;5072499;28;20033;-67
2021/05/12 01:05:56;;;;;;;8.27;4.05;;;;;;;17.27;58.15;99334.66;5071698;28;20033;-68
2021/05/12 01:08:21;;;;;;;7.28;4.32;;;;;;;17.30;57.69;99340.59;5072627;28;20107;-68
2021/05/12 01:10:47;;;;;;;9.43;4.28;;;;;;;17.21;58.09;99340.69;5073016;28;20499;-68
2021/05/12 01:13:13;;;;;;;7.05;4.25;;;;;;;17.10;58.44;99342.63;5055072;28;20450;-69
2021/05/12 01:15:41;;;;;;;8.05;4.28;;;;;;;16.96;58.60;99321.59;5072504;28;20427;-67
2021/05/12 01:18:11;;;;;;;8.65;4.40;;;;;;;16.88;58.95;99316.16;5071314;28;20028;-68
2021/05/12 01:20:46;;;;;;;7.38;4.30;;;;;;;16.90;60.07;99338.41;5072642;28;20029;-68
2021/05/12 01:23:11;;;;;;;6.68;4.32;;;;;;;16.82;59.53;99335.63;5072552;28;20084;-68
2021/05/12 01:25:37;;;;;;;9.30;4.57;;;;;;;16.79;59.76;99335.94;5071179;28;20091;-67
2021/05/12 01:28:03;;;;;;;9.10;4.57;;;;;;;16.76;59.95;99336.25;5071702;28;20101;-71
2021/05/12 01:30:30;;;;;;;8.20;4.57;;;;;;;16.61;60.02;99306.31;5071335;28;20025;-71
2021/05/12 01:32:59;;;;;;;9.52;4.60;;;;;;;16.66;60.30;99319.28;5071382;28;20035;-70
2021/05/12 01:35:25;;;;;;;8.25;4.35;;;;;;;16.52;60.83;99300.00;5071301;28;20060;-70
2021/05/12 01:37:50;;;;;;;7.78;4.68;;;;;;;16.64;60.72;99323.97;5072890;28;20067;-71
2021/05/12 01:40:16;;;;;;;12.27;4.78;;;;;;;16.42;61.16;99301.91;5071410;28;20036;-70
2021/05/12 01:42:41;;;;;;;8.77;4.85;;;;;;;16.48;60.49;99317.41;5054362;28;20039;-70
2021/05/12 01:45:09;;;;;;;8.00;4.38;;;;;;;16.44;60.81;99316.03;5072462;28;20040;-70
2021/05/12 01:47:36;;;;;;;8.85;4.85;;;;;;;16.38;61.72;99319.34;5054673;28;20173;-70
2021/05/12 01:50:05;;;;;;;7.22;4.63;;;;;;;16.21;61.67;99290.56;5072691;28;20037;-70
2021/05/12 01:52:30;;;;;;;10.93;4.70;;;;;;;15.94;62.24;99261.84;5071980;28;20044;-74
2021/05/12 01:54:56;;;;;;;7.80;4.72;;;;;;;16.15;61.58;99293.88;5073019;28;20040;-73
2021/05/12 01:57:21;;;;;;;9.15;4.20;;;;;;;16.27;61.84;99306.09;5072219;28;20085;-72
2021/05/12 01:59:47;;;;;;;9.70;4.50;;;;;;;16.24;61.92;99301.03;5071193;28;20392;-71
2021/05/12 02:02:12;;;;;;;10.80;5.05;;;;;;;16.09;62.60;99279.16;5071397;28;20040;-70
2021/05/12 02:04:38;;;;;;;11.45;4.78;;;;;;;16.14;62.99;99297.56;5072082;28;20043;-71
2021/05/12 02:07:04;;;;;;;9.90;4.72;;;;;;;15.99;63.39;99299.88;5071217;28;20143;-72
2021/05/12 02:09:37;;;;;;;7.30;5.00;;;;;;;15.85;63.50;99278.88;5054032;28;20131;-71
2021/05/12 02:12:03;;;;;;;7.38;4.53;;;;;;;15.81;63.61;99272.94;5072373;28;20032;-70
2021/05/12 02:14:29;;;;;;;8.75;5.07;;;;;;;15.92;63.68;99290.72;5070831;28;20037;-72
2021/05/12 02:16:55;;;;;;;7.70;5.03;;;;;;;15.95;63.82;99293.97;5070912;28;20028;-66
2021/05/12 02:19:20;;;;;;;7.70;4.53;;;;;;;15.95;62.61;99287.75;5074103;28;20376;-74
2021/05/12 02:21:46;;;;;;;8.20;4.50;;;;;;;15.92;63.13;99282.66;5070794;28;20420;-66
2021/05/12 02:24:11;;;;;;;8.48;4.55;;;;;;;15.92;62.19;99280.84;5071240;28;20050;-65
2021/05/12 02:26:37;;;;;;;5.97;4.25;;;;;;;15.90;62.67;99285.50;5072241;28;20374;-65
2021/05/12 02:29:03;;;;;;;8.35;4.47;;;;;;;15.90;62.60;99280.13;5071265;28;20036;-67
2021/05/12 02:31:28;;;;;;;13.23;4.80;;;;;;;15.85;63.81;99279.72;5074219;28;20435;-66
2021/05/12 02:33:54;;;;;;;9.00;5.28;;;;;;;15.74;64.00;99277.25;5074446;28;20032;-67
2021/05/12 02:36:19;;;;;;;11.18;5.35;;;;;;;15.50;64.38;99250.00;5074432;28;20094;-67
2021/05/12 02:38:45;;;;;;;8.75;5.20;;;;;;;15.53;64.06;99250.53;5074205;28;20032;-66
2021/05/12 02:41:12;;;;;;;9.63;4.95;;;;;;;15.70;63.73;99273.16;5075692;28;20086;-66
2021/05/12 02:43:37;;;;;;;9.05;5.03;;;;;;;15.62;64.68;99265.81;5074944;28;20070;-66
2021/05/12 02:46:03;;;;;;;9.15;4.65;;;;;;;15.56;63.44;99252.13;5075753;28;20060;-67
2021/05/12 02:48:28;;;;;;;8.80;4.65;;;;;;;15.68;62.84;99267.06;5073774;28;20036;-66
2021/05/12 02:50:54;;;;;;;9.50;5.05;;;;;;;15.63;63.53;99256.78;5075630;28;20033;-66
2021/05/12 02:53:21;;;;;;;9.10;5.30;;;;;;;15.51;64.43;99265.97;5075567;28;20400;-66
2021/05/12 02:55:46;;;;;;;6.80;4.90;;;;;;;15.47;64.64;99267.28;5057426;28;20451;-66
2021/05/12 02:58:12;;;;;;;9.02;5.10;;;;;;;15.50;63.63;99266.13;5075291;28;20087;-67
2021/05/12 03:00:40;;;;;;;8.32;5.00;;;;;;;15.53;63.55;99265.81;5074935;28;20384;-66
2021/05/12 03:03:06;;;;;;;7.75;4.93;;;;;;;15.39;63.58;99262.63;5074046;28;20506;-66
2021/05/12 03:05:32;;;;;;;8.73;4.80;;;;;;;15.39;64.41;99280.59;5073665;28;20033;-66
2021/05/12 03:07:58;;;;;;;7.65;4.88;;;;;;;15.39;64.24;99275.22;5075111;28;20024;-66
2021/05/12 03:10:23;;;;;;;8.18;5.05;;;;;;;15.36;64.49;99262.94;5073818;28;20043;-75
2021/05/12 03:12:50;;;;;;;9.95;5.53;;;;;;;15.33;64.66;99257.84;5073695;28;20036;-65
2021/05/12 03:15:18;;;;;;;10.88;5.47;;;;;;;15.37;65.16;99272.69;5075272;28;20117;-66
2021/05/12 03:17:44;;;;;;;8.43;5.22;;;;;;;15.29;65.13;99259.13;5074846;28;20102;-65
2021/05/12 03:20:11;;;;;;;10.38;6.03;;;;;;;15.48;64.46;99279.72;5074953;28;20474;-66
2021/05/12 03:22:36;;;;;;;10.20;5.78;;;;;;;15.52;64.07;99288.31;5074481;28;20202;-66
2021/05/12 03:25:02;;;;;;;10.73;5.50;;;;;;;15.55;63.74;99291.59;5074767;28;20430;-66
2021/05/12 03:27:28;;;;;;;9.57;5.18;;;;;;;15.53;63.03;99277.41;5074639;28;20036;-71
2021/05/12 03:29:53;;;;;;;9.43;5.90;;;;;;;15.75;62.38;99292.38;5074618;28;20496;-70
2021/05/12 03:32:19;;;;;;;9.23;5.38;;;;;;;15.73;62.85;99295.22;5056967;28;20037;-68
2021/05/12 03:34:44;;;;;;;13.82;9.07;;;;;;;15.72;63.11;99284.59;5073118;28;20369;-68
2021/05/12 03:37:10;;;;;;;10.60;7.72;;;;;;;15.75;63.77;99287.00;5073514;28;20047;-68
2021/05/12 03:39:36;;;;;;;9.40;6.10;;;;;;;15.92;62.46;99272.78;5074284;28;20029;-71
2021/05/12 03:42:01;;;;;;;9.85;5.78;;;;;;;16.08;62.45;99284.69;5056608;28;20424;-70
2021/05/12 03:44:27;;;;;;;8.45;5.30;;;;;;;16.17;61.79;99291.88;5073204;28;20072;-71
2021/05/12 03:46:52;;;;;;;10.35;5.22;;;;;;;15.91;60.58;99271.03;5074453;28;20036;-69
2021/05/12 03:49:18;;;;;;;9.50;5.55;;;;;;;15.99;61.01;99287.28;5073296;28;20024;-69
2021/05/12 03:51:43;;;;;;;11.73;5.88;;;;;;;16.14;61.34;99281.41;5074122;28;20115;-70
2021/05/12 03:54:09;;;;;;;11.63;5.50;;;;;;;16.59;59.81;99278.66;5073109;28;20039;-68
2021/05/12 03:56:34;;;;;;;8.32;4.38;;;;;;;17.26;56.02;99282.59;5073790;28;20120;-69
2021/05/12 03:59:00;;;;;;;10.23;4.97;;;;;;;18.05;54.16;99281.53;5074008;28;20139;-69
2021/05/12 04:01:25;;;;;;;8.88;4.85;;;;;;;19.12;51.48;99286.09;5073175;28;20047;-69
2021/05/12 04:03:51;;;;;;;6.95;3.78;;;;;;;19.52;47.10;99227.53;5055797;28;20086;-70
2021/05/12 04:06:16;;;;;;;6.30;4.00;;;;;;;20.18;45.93;99266.84;5072722;28;20071;-70
2021/05/12 04:08:42;;;;;;;7.47;3.70;;;;;;;20.61;43.54;99257.28;5072613;28;20132;-69
2021/05/12 04:11:07;;;;;;;8.80;3.70;;;;;;;21.19;42.40;99268.50;5072763;28;20028;-70
2021/05/12 04:13:33;;;;;;;7.25;3.60;;;;;;;21.13;41.66;99245.66;5072618;28;20047;-71
2021/05/12 04:15:59;;;;;;;6.03;3.90;;;;;;;21.78;40.66;99272.13;5072680;28;20445;-70
2021/05/12 04:18:27;;;;;;;7.28;3.65;;;;;;;22.13;39.88;99265.09;5073803;28;20119;-70
2021/05/12 04:20:52;;;;;;;6.80;3.40;;;;;;;22.11;38.76;99223.72;5072002;28;20040;-73
2021/05/12 04:23:18;;;;;;;8.18;3.88;;;;;;;22.47;38.53;99255.44;5075345;28;20052;-72
2021/05/12 04:25:43;;;;;;;9.15;3.95;;;;;;;22.46;38.17;99256.47;5076263;28;20104;-68
2021/05/12 04:28:08;;;;;;;9.68;3.88;;;;;;;22.35;38.30;99240.69;5073694;28;20054;-69
2021/05/12 04:30:34;;;;;;;11.73;4.20;;;;;;;22.95;37.70;99263.88;5073349;28;20037;-70
2021/05/12 04:33:00;;;;;;;7.72;3.63;;;;;;;23.22;36.75;99249.47;5073485;28;20074;-69
2021/05/12 04:35:27;;;;;;;9.88;4.05;;;;;;;23.42;36.09;99260.50;5073898;28;20089;-70
2021/05/12 04:37:53;;;;;;;9.43;4.07;;;;;;;23.76;35.65;99256.97;5071691;28;20466;-69
2021/05/12 04:40:20;;;;;;;4.88;3.58;;;;;;;23.73;35.64;99249.19;5073323;28;20489;-72
2021/05/12 04:42:46;;;;;;;8.55;3.90;;;;;;;23.74;35.43;99253.63;5071812;28;20380;-72
2021/05/12 04:45:13;;;;;;;9.25;3.80;;;;;;;24.28;34.48;99252.78;5073281;28;20032;-70
2021/05/12 04:47:38;;;;;;;10.05;3.70;;;;;;;24.21;34.33;99250.03;5072908;28;20041;-70
2021/05/12 04:50:06;;;;;;;7.50;3.33;;;;;;;24.60;33.45;99239.47;5073422;28;20040;-69
2021/05/12 04:52:32;;;;;;;6.25;3.40;;;;;;;24.89;33.61;99236.34;5073151;28;20032;-75
2021/05/12 04:54:57;;;;;;;8.43;3.30;;;;;;;24.62;33.75;99237.41;5073369;28;20128;-68
2021/05/12 04:57:23;;;;;;;5.53;3.10;;;;;;;24.70;33.24;99232.56;5072235;28;20032;-69
2021/05/12 04:59:48;;;;;;;8.02;3.30;;;;;;;25.00;32.59;99222.13;5072969;28;20078;-68
2021/05/12 05:02:15;;;;;;;7.72;2.92;;;;;;;24.81;32.85;99233.88;5073012;28;20029;-69
2021/05/12 05:04:40;;;;;;;7.75;3.13;;;;;;;24.41;33.00;99205.69;5071666;28;20040;-67
2021/05/12 05:07:07;;;;;;;9.35;2.55;;;;;;;24.59;32.51;99224.16;5055053;28;20483;-67
2021/05/12 05:09:33;;;;;;;6.15;2.60;;;;;;;24.87;31.75;99227.56;5071559;28;20056;-73
2021/05/12 05:11:58;;;;;;;4.40;2.60;;;;;;;24.60;32.43;99210.31;5038502;28;20120;-67
2021/05/12 05:14:24;;;;;;;7.32;2.40;;;;;;;25.03;31.65;99188.97;5071490;28;20457;-69
2021/05/12 05:16:49;;;;;;;6.97;2.70;;;;;;;25.11;31.88;99210.59;5071250;28;20371;-69
2021/05/12 05:19:15;;;;;;;6.60;2.80;;;;;;;25.43;30.53;99227.13;5071602;28;20033;-68
2021/05/12 05:21:41;;;;;;;4.63;2.60;;;;;;;25.81;30.27;99223.72;5072104;28;20066;-69
2021/05/12 05:24:09;;;;;;;7.45;2.70;;;;;;;25.94;29.83;99227.22;5072657;28;20032;-68
2021/05/12 05:26:34;;;;;;;9.45;2.90;;;;;;;25.90;29.83;99228.72;5073107;28;20174;-74
2021/05/12 05:29:00;;;;;;;8.60;2.88;;;;;;;26.00;29.52;99233.72;5073398;28;20115;-70
2021/05/12 05:31:25;;;;;;;7.07;2.83;;;;;;;26.26;29.26;99224.56;5071347;28;20040;-69
2021/05/12 05:33:51;;;;;;;5.95;2.58;;;;;;;25.88;29.17;99187.13;5063229;28;20033;-73
2021/05/12 05:36:17;;;;;;;5.53;2.63;;;;;;;26.10;28.73;99220.44;5068761;28;20032;-68
2021/05/12 05:38:42;;;;;;;6.43;2.78;;;;;;;26.47;28.91;99210.59;5069854;28;20056;-67
2021/05/12 05:41:08;;;;;;;6.03;2.65;;;;;;;26.33;28.72;99205.38;5072667;28;20081;-68
2021/05/12 05:43:33;;;;;;;5.90;2.28;;;;;;;26.61;28.28;99225.00;5054475;28;20047;-68
2021/05/12 05:45:59;;;;;;;8.35;2.85;;;;;;;27.00;28.00;99217.53;5072147;28;20029;-67
2021/05/12 05:48:25;;;;;;;7.28;2.60;;;;;;;26.97;27.52;99223.47;5071061;28;20213;-67
2021/05/12 05:50:50;;;;;;;6.32;3.10;;;;;;;27.22;27.51;99224.34;5071049;28;20033;-70
2021/05/12 05:53:20;;;;;;;6.57;2.60;;;;;;;27.43;27.18;99219.50;5072203;28;20166;-68
2021/05/12 05:55:46;;;;;;;8.70;2.70;;;;;;;27.07;27.34;99207.41;5072011;28;20507;-69
2021/05/12 05:58:12;;;;;;;6.70;2.70;;;;;;;27.19;27.19;99227.50;5072511;28;20043;-67
2021/05/12 06:00:40;;;;;;;6.32;2.60;;;;;;;27.79;26.96;99216.81;5071337;28;20044;-70
2021/05/12 06:03:06;;;;;;;9.20;2.50;;;;;;;27.80;26.80;99217.66;5071743;28;20444;-66
2021/05/12 06:05:31;;;;;;;7.25;2.67;;;;;;;27.89;26.33;99211.66;5074497;28;20032;-71
2021/05/12 06:07:57;;;;;;;7.93;2.60;;;;;;;27.87;26.54;99213.75;5075984;28;20485;-68
2021/05/12 06:10:22;;;;;;;6.20;2.53;;;;;;;28.19;26.49;99221.81;5076159;28;20059;-68
2021/05/12 06:12:47;;;;;;;6.95;2.38;;;;;;;28.44;25.72;99227.16;5075766;28;20070;-69
2021/05/12 06:15:18;;;;;;;6.82;2.53;;;;;;;27.71;26.28;99208.06;5074514;28;20410;-68
2021/05/12 06:17:43;;;;;;;7.90;2.70;;;;;;;28.05;26.30;99221.13;5074623;28;20036;-67
2021/05/12 06:20:09;;;;;;;6.38;2.40;;;;;;;28.22;25.58;99215.84;5075626;28;20439;-69
2021/05/12 06:22:35;;;;;;;7.38;2.78;;;;;;;28.38;25.80;99226.22;5075493;28;20098;-68
2021/05/12 06:25:00;;;;;;;6.85;2.40;;;;;;;28.39;25.82;99222.41;5075577;28;20474;-69
2021/05/12 06:27:26;;;;;;;11.32;3.17;;;;;;;28.63;25.67;99214.22;5074494;28;20512;-70
2021/05/12 06:29:51;;;;;;;8.55;3.10;;;;;;;28.65;26.15;99203.84;5075539;28;20412;-71
2021/05/12 06:32:17;;;;;;;9.07;2.70;;;;;;;28.84;25.09;99213.69;5075451;28;20381;-69
2021/05/12 06:34:42;;;;;;;6.43;2.30;;;;;;;28.70;25.00;99218.56;5074139;28;20033;-69
2021/05/12 06:37:08;;;;;;;5.75;2.50;;;;;;;28.81;25.28;99219.66;5073864;28;20032;-69
2021/05/12 06:39:33;;;;;;;7.35;2.60;;;;;;;28.58;25.23;99225.09;5074274;28;20044;-70
2021/05/12 06:41:59;;;;;;;4.13;2.17;;;;;;;28.73;25.31;99219.97;5077192;28;20110;-69
2021/05/12 06:44:24;;;;;;;7.35;2.60;;;;;;;28.69;25.56;99216.06;5075835;28;20050;-70
2021/05/12 06:46:51;;;;;;;9.68;2.53;;;;;;;28.61;25.47;99188.94;5073514;28;20484;-68
2021/05/12 06:49:18;;;;;;;6.88;2.67;;;;;;;29.15;24.60;99225.47;5041087;28;20124;-69
2021/05/12 06:51:43;;;;;;;6.25;2.38;;;;;;;28.62;25.19;99227.13;5074967;28;20032;-67
2021/05/12 06:54:09;;;;;;;9.25;2.63;;;;;;;28.51;25.34;99222.44;5074446;28;20519;-66
2021/05/12 06:56:34;;;;;;;7.55;2.63;;;;;;;27.88;26.54;99225.56;5074988;28;20377;-68
2021/05/12 06:59:00;;;;;;;7.78;2.40;;;;;;;26.88;27.74;99224.81;5040370;28;20432;-69
2021/05/12 07:01:26;;;;;;;7.15;2.50;;;;;;;26.36;29.00;99240.50;5074914;28;20511;-69
2021/05/12 07:03:51;;;;;;;7.18;2.80;;;;;;;25.92;29.70;99214.84;5074590;28;20025;-72
2021/05/12 07:06:17;;;;;;;5.00;2.58;;;;;;;26.01;30.00;99243.59;5074944;28;20028;-71
2021/05/12 07:08:42;;;;;;;6.53;2.90;;;;;;;25.70;30.25;99238.88;5074753;28;20035;-72
2021/05/12 07:11:10;;;;;;;6.45;3.10;;;;;;;25.76;30.13;99242.63;5074950;28;20075;-71
2021/05/12 07:13:35;;;;;;;7.35;2.63;;;;;;;25.68;30.30;99230.88;5071381;28;20040;-72
2021/05/12 07:16:02;;;;;;;8.07;2.88;;;;;;;25.31;30.54;99212.47;5072321;28;20047;-71
2021/05/12 07:18:27;;;;;;;7.47;2.85;;;;;;;25.60;30.67;99244.75;5073949;28;20059;-71
2021/05/12 07:20:53;;;;;;;6.97;2.88;;;;;;;25.62;30.15;99239.91;5074535;28;20056;-71
2021/05/12 07:23:23;;;;;;;7.85;2.75;;;;;;;25.48;31.17;99224.63;5074163;28;20056;-71
2021/05/12 07:25:55;;;;;;;8.25;3.00;;;;;;;25.50;31.03;99227.97;5074419;28;20149;-68
2021/05/12 07:28:20;;;;;;;9.38;2.80;;;;;;;24.92;31.24;99211.41;5057673;28;20028;-71
2021/05/12 07:30:46;;;;;;;7.80;2.80;;;;;;;24.75;31.99;99213.72;5074362;28;20036;-68
2021/05/12 07:33:12;;;;;;;9.73;3.10;;;;;;;25.03;31.66;99210.81;5073687;28;20556;-71
2021/05/12 07:35:37;;;;;;;7.25;2.97;;;;;;;25.08;31.03;99186.44;5074128;28;20037;-67
2021/05/12 07:38:04;;;;;;;10.85;2.80;;;;;;;25.00;32.21;99227.56;5074110;28;20035;-68
2021/05/12 07:40:33;;;;;;;11.35;2.90;;;;;;;24.96;32.02;99214.56;5071382;28;20051;-68
2021/05/12 07:43:00;;;;;;;9.13;3.22;;;;;;;25.02;32.18;99225.50;5075415;28;20033;-70
2021/05/12 07:45:26;;;;;;;7.57;2.97;;;;;;;25.01;31.99;99223.78;5073759;28;20040;-70
2021/05/12 07:47:52;;;;;;;9.48;3.40;;;;;;;24.89;32.06;99217.28;5073930;28;20110;-72
2021/05/12 07:50:18;;;;;;;5.93;2.28;;;;;;;24.59;32.73;99226.91;5039417;28;20040;-70
2021/05/12 07:52:43;;;;;;;9.68;3.35;;;;;;;24.60;32.45;99220.41;5073868;28;20052;-71
2021/05/12 07:55:09;;;;;;;7.03;2.55;;;;;;;24.67;33.12;99218.53;5072569;28;20470;-71
2021/05/12 07:57:35;;;;;;;15.18;3.30;;;;;;;24.58;32.83;99228.78;5073526;28;20045;-70
2021/05/12 08:00:03;;;;;;;9.63;2.95;;;;;;;24.35;32.82;99234.63;5072266;28;20407;-72
2021/05/12 08:02:28;;;;;;;8.30;2.80;;;;;;;23.88;33.79;99211.78;5055609;28;20040;-70
2021/05/12 08:04:54;;;;;;;5.45;3.08;;;;;;;24.22;33.66;99229.06;5072323;28;20028;-70
2021/05/12 08:07:20;;;;;;;7.22;2.90;;;;;;;24.52;33.04;99224.19;5072327;28;20048;-70
2021/05/12 08:09:45;;;;;;;6.85;3.10;;;;;;;24.33;33.27;99223.09;5073489;28;20040;-71
2021/05/12 08:12:11;;;;;;;9.93;2.97;;;;;;;24.44;33.17;99222.47;5073365;28;20059;-69
2021/05/12 08:14:36;;;;;;;10.10;2.97;;;;;;;24.56;32.98;99214.53;5072012;28;20147;-76
2021/05/12 08:17:02;;;;;;;7.43;3.15;;;;;;;24.64;33.03;99210.78;5072996;28;20028;-69
2021/05/12 08:19:27;;;;;;;8.35;3.03;;;;;;;24.43;32.69;99163.56;5055607;28;20064;-71
2021/05/12 08:21:53;;;;;;;8.45;3.13;;;;;;;24.72;32.01;99180.56;5072897;28;20032;-71
2021/05/12 08:24:19;;;;;;;5.53;2.97;;;;;;;24.98;32.45;99196.09;5055778;28;20032;-70
2021/05/12 08:26:44;;;;;;;11.02;3.05;;;;;;;25.16;32.58;99184.56;5071236;28;20052;-72
2021/05/12 08:29:10;;;;;;;5.63;3.17;;;;;;;25.33;32.20;99196.72;5071794;28;20106;-70
2021/05/12 08:31:38;;;;;;;6.45;2.80;;;;;;;24.58;32.48;99146.16;5071845;28;20036;-70
2021/05/12 08:34:05;;;;;;;5.70;2.83;;;;;;;24.62;32.61;99201.97;5073095;28;20024;-71
2021/05/12 08:36:31;;;;;;;5.85;2.92;;;;;;;24.48;33.14;99196.47;5051919;28;20032;-70
2021/05/12 08:38:57;;;;;;;6.72;3.50;;;;;;;24.45;33.02;99194.19;5061790;28;20029;-72
2021/05/12 08:41:23;;;;;;;7.88;3.08;;;;;;;24.19;33.32;99145.88;5072906;28;20393;-71
2021/05/12 08:43:50;;;;;;;6.43;2.85;;;;;;;24.40;32.85;99165.84;5072783;28;20033;-71
2021/05/12 08:46:18;;;;;;;8.23;3.10;;;;;;;24.15;33.21;99169.16;5054081;28;20036;-71
2021/05/12 08:48:45;;;;;;;5.15;2.65;;;;;;;24.40;33.56;99193.94;5072247;28;20459;-74
2021/05/12 08:51:11;;;;;;;7.60;3.30;;;;;;;24.39;33.78;99191.44;5071465;28;20075;-71
2021/05/12 08:53:37;;;;;;;7.55;2.70;;;;;;;24.59;33.35;99180.56;5072944;28;20537;-71
2021/05/12 08:56:05;;;;;;;6.03;2.90;;;;;;;24.86;32.75;99195.03;5072543;28;20047;-71
2021/05/12 08:58:30;;;;;;;7.72;2.45;;;;;;;25.08;32.00;99199.25;5071466;28;20024;-72
2021/05/12 09:00:56;;;;;;;7.30;2.90;;;;;;;24.84;31.71;99184.34;5072428;28;20103;-70
2021/05/12 09:03:22;;;;;;;6.95;2.70;;;;;;;24.41;32.37;99168.38;5071227;28;20028;-70
2021/05/12 09:05:48;;;;;;;6.30;2.78;;;;;;;24.64;32.62;99194.41;5051420;28;20033;-70
2021/05/12 09:08:16;;;;;;;5.68;2.88;;;;;;;24.85;31.88;99177.84;5071743;28;20430;-70
2021/05/12 09:10:42;;;;;;;6.00;2.75;;;;;;;25.10;31.94;99176.19;5054573;28;20033;-72
2021/05/12 09:13:08;;;;;;;6.65;2.63;;;;;;;25.07;31.58;99146.56;5072394;28;20075;-72
2021/05/12 09:15:34;;;;;;;7.75;2.80;;;;;;;25.21;31.64;99163.78;5071107;28;20033;-72
2021/05/12 09:18:07;;;;;;;6.93;3.10;;;;;;;25.06;31.35;99152.25;5072398;28;20032;-73
2021/05/12 09:20:42;;;;;;;5.95;2.70;;;;;;;25.04;31.53;99157.94;5072626;28;20131;-71
2021/05/12 09:23:12;;;;;;;7.72;2.70;;;;;;;24.94;32.03;99160.22;5072364;28;20441;-71
2021/05/12 09:25:40;;;;;;;8.85;2.60;;;;;;;24.87;32.33;99156.66;5072106;28;20044;-71
2021/05/12 09:28:15;;;;;;;6.07;2.78;;;;;;;24.49;32.43;99159.16;5054472;28;20032;-72
2021/05/12 09:30:43;;;;;;;7.78;2.72;;;;;;;24.82;32.35;99142.81;5071325;28;20055;-71
2021/05/12 09:33:11;;;;;;;7.60;2.90;;;;;;;25.14;31.82;99157.50;5071642;28;20033;-71
2021/05/12 09:35:42;;;;;;;6.38;2.60;;;;;;;25.40;31.54;99159.31;5054916;28;20043;-73
2021/05/12 09:38:22;;;;;;;10.02;2.75;;;;;;;25.24;31.31;99157.88;5074958;28;20040;-73
2021/05/12 09:41:13;;;;;;;7.38;3.30;;;;;;;25.21;31.99;99120.13;5075502;28;20036;-73
2021/05/12 09:43:49;;;;;;;5.22;2.72;;;;;;;25.65;30.96;99123.94;5076492;28;20056;-74
2021/05/12 09:46:22;;;;;;;7.32;2.80;;;;;;;25.88;31.03;99153.50;5076254;28;20085;-73
2021/05/12 09:49:00;;;;;;;12.60;2.92;;;;;;;26.18;30.19;99149.13;5076316;28;20369;-73
2021/05/12 09:51:47;;;;;;;6.22;2.78;;;;;;;26.20;30.55;99127.88;5076632;28;20028;-73
2021/05/12 09:54:19;;;;;;;6.50;2.90;;;;;;;26.05;30.43;99097.28;5075191;28;20047;-73
2021/05/12 09:56:50;;;;;;;6.28;2.53;;;;;;;26.28;30.27;99134.97;5076019;28;20021;-73
2021/05/12 09:59:23;;;;;;;5.53;2.63;;;;;;;26.21;30.37;99134.19;5076229;28;20024;-70
2021/05/12 10:01:59;;;;;;;;;;;;;;;26.41;30.22;99136.81;5075109;28;20127;-71
2021/05/12 10:04:29;;;;;;;5.78;2.40;;;;;;;26.01;30.45;99136.19;5080389;28;19920;-76
2021/05/12 10:06:56;;;;;;;7.10;2.80;;;;;;;25.90;30.60;99118.59;5075735;28;20029;-71
2021/05/12 10:09:31;;;;;;;6.88;2.83;;;;;;;25.86;31.09;99134.56;5075812;28;20093;-71
2021/05/12 10:12:08;;;;;;;5.50;2.97;;;;;;;26.06;31.06;99133.66;5076097;28;20029;-73
2021/05/12 10:14:35;;;;;;;11.45;3.03;;;;;;;26.53;30.45;99124.09;5075926;28;20077;-72
2021/05/12 10:17:03;;;;;;;6.15;2.95;;;;;;;26.85;30.51;99143.19;5075240;28;20111;-74
2021/05/12 10:19:28;;;;;;;7.47;3.20;;;;;;;26.90;29.06;99121.44;5074577;28;20033;-73
2021/05/12 10:21:54;;;;;;;5.68;2.72;;;;;;;26.92;29.44;99133.00;5075641;28;20369;-70
2021/05/12 10:24:20;;;;;;;8.98;2.80;;;;;;;26.90;29.45;99122.28;5074091;28;20481;-73
2021/05/12 10:26:46;;;;;;;9.02;3.00;;;;;;;27.02;29.54;99127.84;5075513;28;20031;-72
2021/05/12 10:29:14;;;;;;;9.65;2.80;;;;;;;26.82;30.08;99128.03;5075570;28;20060;-71
2021/05/12 10:31:40;;;;;;;9.80;2.78;;;;;;;26.95;29.96;99127.09;5057522;28;20036;-70
2021/05/12 10:34:05;;;;;;;8.52;2.78;;;;;;;26.88;29.93;99118.09;5075011;28;20145;-73
2021/05/12 10:36:31;;;;;;;9.05;2.45;;;;;;;26.27;30.59;99118.81;5073720;28;20099;-72
2021/05/12 10:39:03;;;;;;;4.32;2.45;;;;;;;25.95;30.68;99116.03;5075540;28;20506;-70
2021/05/12 10:41:37;;;;;;;6.28;2.50;;;;;;;26.29;30.73;99114.78;5075685;28;20037;-72
2021/05/12 10:44:11;;;;;;;9.55;2.58;;;;;;;26.47;30.44;99105.84;5073832;28;20033;-72
2021/05/12 10:46:58;;;;;;;5.40;2.70;;;;;;;26.73;30.39;99112.97;5074654;28;20058;-73
2021/05/12 10:49:24;;;;;;;6.60;2.70;;;;;;;26.21;30.77;99088.56;5073810;28;20033;-71
2021/05/12 10:51:51;;;;;;;8.07;2.85;;;;;;;26.58;31.05;99098.81;5074636;28;20044;-70
2021/05/12 10:54:40;;;;;;;4.57;2.65;;;;;;;26.89;29.77;99106.09;5073608;28;20056;-71
2021/05/12 10:57:07;;;;;;;4.65;2.60;;;;;;;26.91;29.74;99101.22;5074706;28;20119;-73
2021/05/12 10:59:32;;;;;;;6.60;2.80;;;;;;;26.95;29.66;99072.38;5073474;28;20029;-70
2021/05/12 11:01:59;;;;;;;6.25;2.97;;;;;;;26.92;29.60;99109.22;5073690;28;20424;-72
2021/05/12 11:04:25;;;;;;;6.20;2.70;;;;;;;27.28;29.86;99099.41;5074286;28;20032;-70
2021/05/12 11:06:51;;;;;;;5.88;2.97;;;;;;;27.21;29.05;99082.22;5074601;28;20028;-70
2021/05/12 11:09:18;;;;;;;6.90;2.90;;;;;;;27.28;29.69;99094.75;5074570;28;20033;-69
2021/05/12 11:11:46;;;;;;;8.40;2.88;;;;;;;27.31;29.17;99071.56;5073560;28;20270;-70
2021/05/12 11:14:20;;;;;;;6.32;2.50;;;;;;;26.89;29.62;99074.09;5074723;28;20044;-70
2021/05/12 11:17:00;;;;;;;6.47;2.90;;;;;;;27.02;29.67;99086.81;5074064;28;20527;-70
2021/05/12 11:19:46;;;;;;;9.02;2.78;;;;;;;26.86;30.43;99074.56;5073976;28;20063;-74
2021/05/12 11:33:32;;;;;;;16.13;3.80;;;;;;;26.30;36.02;99060.94;5073875;28;20450;-73
2021/05/12 11:36:35;;;;;;;9.57;3.70;;;;;;;26.29;36.41;99057.38;5073855;28;20090;-75
2021/05/12 11:38:53;;;;;;;8.35;3.58;;;;;;;26.15;33.50;99067.59;5071800;28;20052;-72
2021/05/12 11:41:22;;;;;;;10.18;3.78;;;;;;;26.20;35.59;99023.19;5055345;28;20536;-72
2021/05/12 11:43:52;;;;;;;10.32;4.03;;;;;;;26.37;35.49;99053.53;5069626;28;20029;-73